S52JK Weather Reports


Display with metric or nautical units.
time (UTC)temp
F
wind
direction
speed
MPH
gust
MPH
rain 1hr
in
rain 24hr
in
rain mn
in
humidity
%
barometer
mb
20190116155116 39 290 0.0 0.0 0.00 0.00 0.00 28
20190116154115 42 67 0.0 0.0 0.00 0.00 0.00 23
20190116153117 44 246 0.0 0.0 0.00 0.00 0.00 20
20190116152116 44 255 1.0 1.0 0.00 0.00 0.00 17
20190116151115 45 249 6.0 6.0 0.00 0.00 0.00 16
20190116150118 46 247 6.0 8.0 0.00 0.00 0.00 17
20190116144117 46 244 6.0 7.0 0.00 0.00 0.00 16
20190116135116 48 242 3.0 4.0 0.00 0.00 0.00 13
20190116132116 45 133 0.0 1.0 0.00 0.00 0.00 23
20190116131117 44 81 0.0 1.0 0.00 0.00 0.00 23
20190116130118 44 92 1.0 1.0 0.00 0.00 0.00 22
20190116125117 43 119 2.0 2.0 0.00 0.00 0.00 22
20190116124117 44 80 0.0 1.0 0.00 0.00 0.00 20
20190116123117 43 104 1.0 1.0 0.00 0.00 0.00 20
20190116121120 44 94 1.0 1.0 0.00 0.00 0.00 14
20190116115117 43 103 1.0 1.0 0.00 0.00 0.00 18
20190116114117 43 121 0.0 1.0 0.00 0.00 0.00 23
20190116113116 42 84 0.0 1.0 0.00 0.00 0.00 22
20190116112116 41 120 1.0 1.0 0.00 0.00 0.00 21
20190116101117 37 0.0 0.0 0.00 0.00 0.00 35
20190116093116 36 164 0.0 0.0 0.00 0.00 0.00 37
20190116092117 37 0.0 0.0 0.00 0.00 0.00 38
20190116091116 34 0.0 0.0 0.00 0.00 0.00 41
20190116090116 32 240 0.0 0.0 0.00 0.00 0.00 48
20190116085117 31 0.0 0.0 0.00 0.00 0.00 47
20190116083117 29 244 0.0 0.0 0.00 0.00 0.00 47
20190116081116 28 290 0.0 0.0 0.00 0.00 0.00 50
20190116074116 26 0.0 0.0 0.00 0.00 0.00 58
20190116073117 26 95 1.0 1.0 0.00 0.00 0.00 62
20190116071116 26 246 0.0 1.0 0.00 0.00 0.00 55
20190116070117 26 90 0.0 1.0 0.00 0.00 0.00 58
20190116065116 26 250 1.0 1.0 0.00 0.00 0.00 62
20190116064117 25 258 1.0 1.0 0.00 0.00 0.00 61
20190116063117 25 107 0.0 0.0 0.00 0.00 0.00 81
20190116062116 26 54 0.0 0.0 0.00 0.00 0.00 80
20190116060118 26 89 0.0 0.0 0.00 0.00 0.00 80
20190116055116 26 252 1.0 1.0 0.00 0.00 0.00 65
20190116054116 26 95 0.0 0.0 0.00 0.00 0.00 81
20190116053117 26 0.0 0.0 0.00 0.00 0.00 81
20190116051116 27 0.0 0.0 0.00 0.00 0.00 78
20190116050117 26 263 0.0 0.0 0.00 0.00 0.00 64
20190116045116 26 247 0.0 0.0 0.00 0.00 0.00 62
20190116044117 27 259 0.0 0.0 0.00 0.00 0.00 76
20190116043117 27 89 0.0 0.0 0.00 0.00 0.00 59
20190116040115 27 262 0.0 1.0 0.00 0.00 0.00 71
20190116035116 27 0.0 0.0 0.00 0.00 0.00 73
20190116031116 27 0.0 0.0 0.00 0.00 0.00 70
20190116024116 26 277 0.0 0.0 0.00 0.00 0.00 60
20190116023117 27 0.0 0.0 0.00 0.00 0.00 59
20190116022116 26 247 1.0 1.0 0.00 0.00 0.00 60
20190116021116 27 260 0.0 0.0 0.00 0.00 0.00 59
20190116020117 27 112 0.0 0.0 0.00 0.00 0.00 57
20190116015116 27 0.0 0.0 0.00 0.00 0.00 52
20190116013115 26 255 0.0 0.0 0.00 0.00 0.00 71
20190116012116 27 0.0 0.0 0.00 0.00 0.00 70
20190116002116 27 174 0.0 0.0 0.00 0.00 0.00 55
20190115235116 27 194 0.0 0.0 0.00 0.00 0.00 57
20190115234117 27 172 0.0 0.0 0.00 0.00 0.00 55
20190115233116 27 116 0.0 0.0 0.00 0.00 0.00 67
20190115231115 27 251 1.0 2.0 0.00 0.00 0.00 53
20190115230116 28 0.0 0.0 0.00 0.00 0.00 61
20190115225115 28 92 0.0 0.0 0.00 0.00 0.00 60
20190115224116 28 64 0.0 0.0 0.00 0.00 0.00 60
20190115221116 29 261 0.0 1.0 0.00 0.00 0.00 56
20190115220117 30 251 2.0 3.0 0.00 0.00 0.00 36
20190115215116 29 105 0.0 1.0 0.00 0.00 0.00 45
20190115214116 30 0.0 0.0 0.00 0.00 0.00 43
20190115213117 30 271 0.0 0.0 0.00 0.00 0.00 33
20190115211116 30 251 0.0 1.0 0.00 0.00 0.00 33
20190115210115 29 24 0.0 0.0 0.00 0.00 0.00 46
20190115205115 30 0.0 0.0 0.00 0.00 0.00 30
20190115204116 30 288 0.0 0.0 0.00 0.00 0.00 32
20190115203115 29 307 0.0 0.0 0.00 0.00 0.00 35
20190115201117 31 101 1.0 1.0 0.00 0.00 0.00 32
20190115195116 31 113 1.0 1.0 0.00 0.00 0.00 30
20190115185116 34 92 0.0 0.0 0.00 0.00 0.00 20
20190115182116 36 153 0.0 0.0 0.00 0.00 0.00 16
20190115175116 39 350 0.0 1.0 0.00 0.00 0.00 11
20190115174116 39 252 1.0 2.0 0.00 0.00 0.00 7
20190115172117 41 287 1.0 2.0 0.00 0.00 0.00 9
20190115165116 41 251 6.0 6.0 0.00 0.00 0.00 9
20190115162116 41 255 5.0 6.0 0.00 0.00 0.00 6
20190115161115 41 256 5.0 6.0 0.00 0.00 0.00 6
20190115160117 42 242 4.0 5.0 0.00 0.00 0.00 7